sensor_id;sensor_type;location;lat;lon;timestamp;temperature;humidity
52867;DHT22;38739;53.324;6.862;2024-02-21T00:00:50;9.60;99.90
52867;DHT22;38739;53.324;6.862;2024-02-21T00:03:15;9.50;99.90
52867;DHT22;38739;53.324;6.862;2024-02-21T00:05:41;9.50;99.90
52867;DHT22;38739;53.324;6.862;2024-02-21T00:08:07;9.50;99.90
52867;DHT22;38739;53.324;6.862;2024-02-21T00:10:32;9.50;99.90
52867;DHT22;38739;53.324;6.862;2024-02-21T00:12:58;9.50;99.90
52867;DHT22;38739;53.324;6.862;2024-02-21T00:15:27;9.50;99.90
52867;DHT22;38739;53.324;6.862;2024-02-21T00:17:53;9.50;99.90
52867;DHT22;38739;53.324;6.862;2024-02-21T00:20:19;9.40;99.90
52867;DHT22;38739;53.324;6.862;2024-02-21T00:22:46;9.40;99.90
52867;DHT22;38739;53.324;6.862;2024-02-21T00:25:12;9.40;99.90
52867;DHT22;38739;53.324;6.862;2024-02-21T00:27:38;9.40;99.90
52867;DHT22;38739;53.324;6.862;2024-02-21T00:30:05;9.30;99.90
52867;DHT22;38739;53.324;6.862;2024-02-21T00:32:31;9.30;99.90
52867;DHT22;38739;53.324;6.862;2024-02-21T00:34:57;9.30;99.90
52867;DHT22;38739;53.324;6.862;2024-02-21T00:37:23;9.20;99.90
52867;DHT22;38739;53.324;6.862;2024-02-21T00:39:49;9.20;99.90
52867;DHT22;38739;53.324;6.862;2024-02-21T00:42:14;9.20;99.90
52867;DHT22;38739;53.324;6.862;2024-02-21T00:44:40;9.20;99.90
52867;DHT22;38739;53.324;6.862;2024-02-21T00:47:06;9.20;99.90
52867;DHT22;38739;53.324;6.862;2024-02-21T00:49:31;9.20;99.90
52867;DHT22;38739;53.324;6.862;2024-02-21T00:51:57;9.20;99.90
52867;DHT22;38739;53.324;6.862;2024-02-21T00:54:23;9.20;99.90
52867;DHT22;38739;53.324;6.862;2024-02-21T00:56:48;9.20;99.90
52867;DHT22;38739;53.324;6.862;2024-02-21T00:59:14;9.20;99.90
52867;DHT22;38739;53.324;6.862;2024-02-21T01:01:40;9.20;99.90
52867;DHT22;38739;53.324;6.862;2024-02-21T01:04:11;9.20;99.90
52867;DHT22;38739;53.324;6.862;2024-02-21T01:06:37;9.20;99.90
52867;DHT22;38739;53.324;6.862;2024-02-21T01:09:03;9.20;99.90
52867;DHT22;38739;53.324;6.862;2024-02-21T01:11:29;9.10;99.90
52867;DHT22;38739;53.324;6.862;2024-02-21T01:13:55;9.10;99.90
52867;DHT22;38739;53.324;6.862;2024-02-21T01:16:21;9.10;99.90
52867;DHT22;38739;53.324;6.862;2024-02-21T01:18:46;9.10;99.90
52867;DHT22;38739;53.324;6.862;2024-02-21T01:21:12;9.10;99.90
52867;DHT22;38739;53.324;6.862;2024-02-21T01:23:38;9.10;99.90
52867;DHT22;38739;53.324;6.862;2024-02-21T01:26:04;9.10;99.90
52867;DHT22;38739;53.324;6.862;2024-02-21T01:28:30;9.10;99.90
52867;DHT22;38739;53.324;6.862;2024-02-21T01:30:56;9.10;99.90
52867;DHT22;38739;53.324;6.862;2024-02-21T01:33:22;9.10;99.90
52867;DHT22;38739;53.324;6.862;2024-02-21T01:35:48;9.00;99.90
52867;DHT22;38739;53.324;6.862;2024-02-21T01:38:15;9.00;99.90
52867;DHT22;38739;53.324;6.862;2024-02-21T01:40:41;9.10;99.90
52867;DHT22;38739;53.324;6.862;2024-02-21T01:43:16;9.00;99.90
52867;DHT22;38739;53.324;6.862;2024-02-21T01:45:44;9.00;99.90
52867;DHT22;38739;53.324;6.862;2024-02-21T01:48:12;9.00;99.90
52867;DHT22;38739;53.324;6.862;2024-02-21T01:50:38;9.00;99.90
52867;DHT22;38739;53.324;6.862;2024-02-21T01:53:04;9.00;99.90
52867;DHT22;38739;53.324;6.862;2024-02-21T01:55:30;8.90;99.90
52867;DHT22;38739;53.324;6.862;2024-02-21T01:57:56;8.90;99.90
52867;DHT22;38739;53.324;6.862;2024-02-21T02:00:23;8.90;99.90
52867;DHT22;38739;53.324;6.862;2024-02-21T02:02:49;8.90;99.90
52867;DHT22;38739;53.324;6.862;2024-02-21T02:05:16;8.80;99.90
52867;DHT22;38739;53.324;6.862;2024-02-21T02:07:44;8.80;99.90
52867;DHT22;38739;53.324;6.862;2024-02-21T02:10:09;8.80;99.90
52867;DHT22;38739;53.324;6.862;2024-02-21T02:12:36;8.80;99.90
52867;DHT22;38739;53.324;6.862;2024-02-21T02:15:03;8.80;99.90
52867;DHT22;38739;53.324;6.862;2024-02-21T02:17:34;8.80;99.90
52867;DHT22;38739;53.324;6.862;2024-02-21T02:20:00;8.80;99.90
52867;DHT22;38739;53.324;6.862;2024-02-21T02:22:29;8.80;99.90
52867;DHT22;38739;53.324;6.862;2024-02-21T02:24:55;8.80;99.90
52867;DHT22;38739;53.324;6.862;2024-02-21T02:27:21;8.80;99.90
52867;DHT22;38739;53.324;6.862;2024-02-21T02:29:48;8.80;99.90
52867;DHT22;38739;53.324;6.862;2024-02-21T02:32:14;8.80;99.90
52867;DHT22;38739;53.324;6.862;2024-02-21T02:34:40;8.80;99.90
52867;DHT22;38739;53.324;6.862;2024-02-21T02:37:06;8.80;99.90
52867;DHT22;38739;53.324;6.862;2024-02-21T02:39:31;8.80;99.90
52867;DHT22;38739;53.324;6.862;2024-02-21T02:41:57;8.80;99.90
52867;DHT22;38739;53.324;6.862;2024-02-21T02:44:23;8.80;99.90
52867;DHT22;38739;53.324;6.862;2024-02-21T02:46:49;8.80;99.90
52867;DHT22;38739;53.324;6.862;2024-02-21T02:49:15;8.80;99.90
52867;DHT22;38739;53.324;6.862;2024-02-21T02:51:44;8.80;99.90
52867;DHT22;38739;53.324;6.862;2024-02-21T02:54:10;8.80;99.90
52867;DHT22;38739;53.324;6.862;2024-02-21T02:56:36;8.80;99.90
52867;DHT22;38739;53.324;6.862;2024-02-21T02:59:02;8.80;99.90
52867;DHT22;38739;53.324;6.862;2024-02-21T03:01:29;8.80;99.90
52867;DHT22;38739;53.324;6.862;2024-02-21T03:03:54;8.80;99.90
52867;DHT22;38739;53.324;6.862;2024-02-21T03:06:20;8.80;99.90
52867;DHT22;38739;53.324;6.862;2024-02-21T03:08:46;8.80;99.90
52867;DHT22;38739;53.324;6.862;2024-02-21T03:11:11;8.80;99.90
52867;DHT22;38739;53.324;6.862;2024-02-21T03:13:37;8.80;99.90
52867;DHT22;38739;53.324;6.862;2024-02-21T03:16:04;8.80;99.90
52867;DHT22;38739;53.324;6.862;2024-02-21T03:18:31;8.80;99.90
52867;DHT22;38739;53.324;6.862;2024-02-21T03:20:57;8.80;99.90
52867;DHT22;38739;53.324;6.862;2024-02-21T03:23:22;8.80;99.90
52867;DHT22;38739;53.324;6.862;2024-02-21T03:25:51;8.80;99.90
52867;DHT22;38739;53.324;6.862;2024-02-21T03:28:17;8.80;99.90
52867;DHT22;38739;53.324;6.862;2024-02-21T03:30:43;8.80;99.90
52867;DHT22;38739;53.324;6.862;2024-02-21T03:33:09;8.80;99.90
52867;DHT22;38739;53.324;6.862;2024-02-21T03:35:34;8.80;99.90
52867;DHT22;38739;53.324;6.862;2024-02-21T03:38:00;8.80;99.90
52867;DHT22;38739;53.324;6.862;2024-02-21T03:40:26;8.80;99.90
52867;DHT22;38739;53.324;6.862;2024-02-21T03:42:51;8.80;99.90
52867;DHT22;38739;53.324;6.862;2024-02-21T03:45:17;8.80;99.90
52867;DHT22;38739;53.324;6.862;2024-02-21T03:47:43;8.80;99.90
52867;DHT22;38739;53.324;6.862;2024-02-21T03:50:08;8.80;99.90
52867;DHT22;38739;53.324;6.862;2024-02-21T03:52:34;8.80;99.90
52867;DHT22;38739;53.324;6.862;2024-02-21T03:55:00;8.80;99.90
52867;DHT22;38739;53.324;6.862;2024-02-21T03:57:26;8.80;99.90
52867;DHT22;38739;53.324;6.862;2024-02-21T03:59:51;8.80;99.90
52867;DHT22;38739;53.324;6.862;2024-02-21T04:02:17;8.80;99.90
52867;DHT22;38739;53.324;6.862;2024-02-21T04:04:44;8.80;99.90
52867;DHT22;38739;53.324;6.862;2024-02-21T04:07:15;8.90;99.90
52867;DHT22;38739;53.324;6.862;2024-02-21T04:09:41;8.80;99.90
52867;DHT22;38739;53.324;6.862;2024-02-21T04:12:08;8.80;99.90
52867;DHT22;38739;53.324;6.862;2024-02-21T04:14:34;8.90;99.90
52867;DHT22;38739;53.324;6.862;2024-02-21T04:17:00;8.80;99.90
52867;DHT22;38739;53.324;6.862;2024-02-21T04:19:26;8.80;99.90
52867;DHT22;38739;53.324;6.862;2024-02-21T04:21:51;8.80;99.90
52867;DHT22;38739;53.324;6.862;2024-02-21T04:24:17;8.80;99.90
52867;DHT22;38739;53.324;6.862;2024-02-21T04:26:43;8.80;99.90
52867;DHT22;38739;53.324;6.862;2024-02-21T04:29:09;8.80;99.90
52867;DHT22;38739;53.324;6.862;2024-02-21T04:31:35;8.80;99.90
52867;DHT22;38739;53.324;6.862;2024-02-21T04:34:01;8.80;99.90
52867;DHT22;38739;53.324;6.862;2024-02-21T04:36:28;8.80;99.90
52867;DHT22;38739;53.324;6.862;2024-02-21T04:38:54;8.80;99.90
52867;DHT22;38739;53.324;6.862;2024-02-21T04:41:19;8.90;99.90
52867;DHT22;38739;53.324;6.862;2024-02-21T04:43:48;8.80;99.90
52867;DHT22;38739;53.324;6.862;2024-02-21T04:46:14;8.80;99.90
52867;DHT22;38739;53.324;6.862;2024-02-21T04:48:41;8.80;99.90
52867;DHT22;38739;53.324;6.862;2024-02-21T04:51:06;8.90;99.90
52867;DHT22;38739;53.324;6.862;2024-02-21T04:53:32;8.80;99.90
52867;DHT22;38739;53.324;6.862;2024-02-21T04:55:58;8.80;99.90
52867;DHT22;38739;53.324;6.862;2024-02-21T04:58:24;8.90;99.90
52867;DHT22;38739;53.324;6.862;2024-02-21T05:00:50;8.90;99.90
52867;DHT22;38739;53.324;6.862;2024-02-21T05:03:17;8.80;99.90
52867;DHT22;38739;53.324;6.862;2024-02-21T05:05:42;8.80;99.90
52867;DHT22;38739;53.324;6.862;2024-02-21T05:08:09;8.80;99.90
52867;DHT22;38739;53.324;6.862;2024-02-21T05:10:35;8.80;99.90
52867;DHT22;38739;53.324;6.862;2024-02-21T05:13:01;8.80;99.90
52867;DHT22;38739;53.324;6.862;2024-02-21T05:15:27;8.80;99.90
52867;DHT22;38739;53.324;6.862;2024-02-21T05:17:53;8.80;99.90
52867;DHT22;38739;53.324;6.862;2024-02-21T05:20:19;8.80;99.90
52867;DHT22;38739;53.324;6.862;2024-02-21T05:22:45;8.80;99.90
52867;DHT22;38739;53.324;6.862;2024-02-21T05:25:11;8.80;99.90
52867;DHT22;38739;53.324;6.862;2024-02-21T05:27:36;8.80;99.90
52867;DHT22;38739;53.324;6.862;2024-02-21T05:30:04;8.80;99.90
52867;DHT22;38739;53.324;6.862;2024-02-21T05:32:32;8.80;99.90
52867;DHT22;38739;53.324;6.862;2024-02-21T05:34:57;8.80;99.90
52867;DHT22;38739;53.324;6.862;2024-02-21T05:37:24;8.70;99.90
52867;DHT22;38739;53.324;6.862;2024-02-21T05:39:49;8.80;99.90
52867;DHT22;38739;53.324;6.862;2024-02-21T05:42:15;8.70;99.90
52867;DHT22;38739;53.324;6.862;2024-02-21T05:44:41;8.70;99.90
52867;DHT22;38739;53.324;6.862;2024-02-21T05:47:06;8.70;99.90
52867;DHT22;38739;53.324;6.862;2024-02-21T05:49:36;8.70;99.90
52867;DHT22;38739;53.324;6.862;2024-02-21T05:52:02;8.70;99.90
52867;DHT22;38739;53.324;6.862;2024-02-21T05:54:28;8.70;99.90
52867;DHT22;38739;53.324;6.862;2024-02-21T05:56:53;8.70;99.90
52867;DHT22;38739;53.324;6.862;2024-02-21T05:59:19;8.70;99.90
52867;DHT22;38739;53.324;6.862;2024-02-21T06:01:55;8.70;99.90
52867;DHT22;38739;53.324;6.862;2024-02-21T06:04:23;8.70;99.90
52867;DHT22;38739;53.324;6.862;2024-02-21T06:06:48;8.70;99.90
52867;DHT22;38739;53.324;6.862;2024-02-21T06:09:14;8.70;99.90
52867;DHT22;38739;53.324;6.862;2024-02-21T06:11:40;8.70;99.90
52867;DHT22;38739;53.324;6.862;2024-02-21T06:14:06;8.80;99.90
52867;DHT22;38739;53.324;6.862;2024-02-21T06:16:31;8.80;99.90
52867;DHT22;38739;53.324;6.862;2024-02-21T06:18:57;8.70;99.90
52867;DHT22;38739;53.324;6.862;2024-02-21T06:21:23;8.80;99.90
52867;DHT22;38739;53.324;6.862;2024-02-21T06:23:48;8.70;99.90
52867;DHT22;38739;53.324;6.862;2024-02-21T06:26:14;8.80;99.90
52867;DHT22;38739;53.324;6.862;2024-02-21T06:28:40;8.80;99.90
52867;DHT22;38739;53.324;6.862;2024-02-21T06:31:05;8.80;99.90
52867;DHT22;38739;53.324;6.862;2024-02-21T06:33:31;8.70;99.90
52867;DHT22;38739;53.324;6.862;2024-02-21T06:35:57;8.70;99.90
52867;DHT22;38739;53.324;6.862;2024-02-21T06:38:22;8.80;99.90
52867;DHT22;38739;53.324;6.862;2024-02-21T06:40:48;8.80;99.90
52867;DHT22;38739;53.324;6.862;2024-02-21T06:43:18;8.70;99.90
52867;DHT22;38739;53.324;6.862;2024-02-21T06:45:44;8.80;99.90
52867;DHT22;38739;53.324;6.862;2024-02-21T06:48:13;8.80;99.90
52867;DHT22;38739;53.324;6.862;2024-02-21T06:50:38;8.70;99.90
52867;DHT22;38739;53.324;6.862;2024-02-21T06:53:04;8.80;99.90
52867;DHT22;38739;53.324;6.862;2024-02-21T06:55:30;8.80;99.90
52867;DHT22;38739;53.324;6.862;2024-02-21T06:57:55;8.80;99.90
52867;DHT22;38739;53.324;6.862;2024-02-21T07:00:21;8.70;99.90
52867;DHT22;38739;53.324;6.862;2024-02-21T07:02:48;8.80;99.90
52867;DHT22;38739;53.324;6.862;2024-02-21T07:05:14;8.70;99.90
52867;DHT22;38739;53.324;6.862;2024-02-21T07:07:39;8.70;99.90
52867;DHT22;38739;53.324;6.862;2024-02-21T07:10:08;8.70;99.90
52867;DHT22;38739;53.324;6.862;2024-02-21T07:12:34;8.80;99.90
52867;DHT22;38739;53.324;6.862;2024-02-21T07:15:05;8.70;99.90
52867;DHT22;38739;53.324;6.862;2024-02-21T07:17:31;8.70;99.90
52867;DHT22;38739;53.324;6.862;2024-02-21T07:19:56;8.70;99.90
52867;DHT22;38739;53.324;6.862;2024-02-21T07:22:24;8.80;99.90
52867;DHT22;38739;53.324;6.862;2024-02-21T07:24:50;8.80;99.90
52867;DHT22;38739;53.324;6.862;2024-02-21T07:27:16;8.80;99.90
52867;DHT22;38739;53.324;6.862;2024-02-21T07:29:42;8.80;99.90
52867;DHT22;38739;53.324;6.862;2024-02-21T07:32:08;8.80;99.90
52867;DHT22;38739;53.324;6.862;2024-02-21T07:34:33;8.80;99.90
52867;DHT22;38739;53.324;6.862;2024-02-21T07:36:59;8.80;99.90
52867;DHT22;38739;53.324;6.862;2024-02-21T07:39:25;8.80;99.90
52867;DHT22;38739;53.324;6.862;2024-02-21T07:41:50;8.80;99.90
52867;DHT22;38739;53.324;6.862;2024-02-21T07:44:16;8.70;99.90
52867;DHT22;38739;53.324;6.862;2024-02-21T07:46:42;8.80;99.90
52867;DHT22;38739;53.324;6.862;2024-02-21T07:49:07;8.80;99.90
52867;DHT22;38739;53.324;6.862;2024-02-21T07:51:34;8.80;99.90
52867;DHT22;38739;53.324;6.862;2024-02-21T07:54:01;8.80;99.90
52867;DHT22;38739;53.324;6.862;2024-02-21T07:56:28;8.80;99.90
52867;DHT22;38739;53.324;6.862;2024-02-21T07:58:54;8.80;99.90
52867;DHT22;38739;53.324;6.862;2024-02-21T08:01:20;8.80;99.90
52867;DHT22;38739;53.324;6.862;2024-02-21T08:03:46;8.80;99.90
52867;DHT22;38739;53.324;6.862;2024-02-21T08:06:13;8.80;99.90
52867;DHT22;38739;53.324;6.862;2024-02-21T08:08:39;8.80;99.90
52867;DHT22;38739;53.324;6.862;2024-02-21T08:11:05;8.80;99.90
52867;DHT22;38739;53.324;6.862;2024-02-21T08:13:31;8.80;99.90
52867;DHT22;38739;53.324;6.862;2024-02-21T08:15:57;8.80;99.90
52867;DHT22;38739;53.324;6.862;2024-02-21T08:18:23;8.80;99.90
52867;DHT22;38739;53.324;6.862;2024-02-21T08:20:48;8.80;99.90
52867;DHT22;38739;53.324;6.862;2024-02-21T08:23:18;8.80;99.90
52867;DHT22;38739;53.324;6.862;2024-02-21T08:25:44;8.90;99.90
52867;DHT22;38739;53.324;6.862;2024-02-21T08:28:10;8.90;99.90
52867;DHT22;38739;53.324;6.862;2024-02-21T08:30:35;8.90;99.90
52867;DHT22;38739;53.324;6.862;2024-02-21T08:33:01;8.90;99.90
52867;DHT22;38739;53.324;6.862;2024-02-21T08:35:27;8.90;99.90
52867;DHT22;38739;53.324;6.862;2024-02-21T08:37:53;8.90;99.90
52867;DHT22;38739;53.324;6.862;2024-02-21T08:40:18;8.90;99.90
52867;DHT22;38739;53.324;6.862;2024-02-21T08:42:47;8.90;99.90
52867;DHT22;38739;53.324;6.862;2024-02-21T08:45:12;8.90;99.90
52867;DHT22;38739;53.324;6.862;2024-02-21T08:47:41;9.00;99.90
52867;DHT22;38739;53.324;6.862;2024-02-21T08:50:08;8.90;99.90
52867;DHT22;38739;53.324;6.862;2024-02-21T08:52:37;9.00;99.90
52867;DHT22;38739;53.324;6.862;2024-02-21T08:55:03;9.00;99.90
52867;DHT22;38739;53.324;6.862;2024-02-21T08:57:29;9.00;99.90
52867;DHT22;38739;53.324;6.862;2024-02-21T08:59:54;9.00;99.90
52867;DHT22;38739;53.324;6.862;2024-02-21T09:02:20;9.00;99.90
52867;DHT22;38739;53.324;6.862;2024-02-21T09:04:46;9.00;99.90
52867;DHT22;38739;53.324;6.862;2024-02-21T09:07:12;9.00;99.90
52867;DHT22;38739;53.324;6.862;2024-02-21T09:09:37;9.00;99.90
52867;DHT22;38739;53.324;6.862;2024-02-21T09:12:07;9.00;99.90
52867;DHT22;38739;53.324;6.862;2024-02-21T09:14:33;9.00;99.90
52867;DHT22;38739;53.324;6.862;2024-02-21T09:16:59;9.10;99.90
52867;DHT22;38739;53.324;6.862;2024-02-21T09:19:25;9.00;99.90
52867;DHT22;38739;53.324;6.862;2024-02-21T09:21:51;9.00;99.90
52867;DHT22;38739;53.324;6.862;2024-02-21T09:24:17;9.10;99.90
52867;DHT22;38739;53.324;6.862;2024-02-21T09:26:43;9.00;99.90
52867;DHT22;38739;53.324;6.862;2024-02-21T09:29:09;9.10;99.90
52867;DHT22;38739;53.324;6.862;2024-02-21T09:31:35;9.00;99.90
52867;DHT22;38739;53.324;6.862;2024-02-21T09:34:00;9.00;99.90
52867;DHT22;38739;53.324;6.862;2024-02-21T09:36:27;9.00;99.90
52867;DHT22;38739;53.324;6.862;2024-02-21T09:38:53;9.10;99.90
52867;DHT22;38739;53.324;6.862;2024-02-21T09:41:26;9.00;99.90
52867;DHT22;38739;53.324;6.862;2024-02-21T09:43:55;9.00;99.90
52867;DHT22;38739;53.324;6.862;2024-02-21T09:46:27;9.00;99.90
52867;DHT22;38739;53.324;6.862;2024-02-21T09:51:40;9.10;99.90
52867;DHT22;38739;53.324;6.862;2024-02-21T09:54:07;9.10;99.90
52867;DHT22;38739;53.324;6.862;2024-02-21T09:56:33;9.10;99.90
52867;DHT22;38739;53.324;6.862;2024-02-21T09:58:59;9.10;99.90
52867;DHT22;38739;53.324;6.862;2024-02-21T10:01:28;9.10;99.90
52867;DHT22;38739;53.324;6.862;2024-02-21T10:03:54;9.10;99.90
52867;DHT22;38739;53.324;6.862;2024-02-21T10:06:20;9.10;99.90
52867;DHT22;38739;53.324;6.862;2024-02-21T10:08:52;9.10;99.90
52867;DHT22;38739;53.324;6.862;2024-02-21T10:11:25;9.10;99.90
52867;DHT22;38739;53.324;6.862;2024-02-21T10:13:51;9.10;99.90
52867;DHT22;38739;53.324;6.862;2024-02-21T10:16:17;9.10;99.90
52867;DHT22;38739;53.324;6.862;2024-02-21T10:18:43;9.20;99.90
52867;DHT22;38739;53.324;6.862;2024-02-21T10:21:08;9.20;99.90
52867;DHT22;38739;53.324;6.862;2024-02-21T10:24:00;9.20;99.90
52867;DHT22;38739;53.324;6.862;2024-02-21T10:26:29;9.20;99.90
52867;DHT22;38739;53.324;6.862;2024-02-21T10:28:55;9.20;99.90
52867;DHT22;38739;53.324;6.862;2024-02-21T10:31:28;9.30;99.90
52867;DHT22;38739;53.324;6.862;2024-02-21T10:33:58;9.30;99.90
52867;DHT22;38739;53.324;6.862;2024-02-21T10:36:24;9.30;99.90
52867;DHT22;38739;53.324;6.862;2024-02-21T10:38:51;9.30;99.90
52867;DHT22;38739;53.324;6.862;2024-02-21T10:41:19;9.30;99.90
52867;DHT22;38739;53.324;6.862;2024-02-21T10:43:53;9.30;99.90
52867;DHT22;38739;53.324;6.862;2024-02-21T10:46:21;9.30;99.90
52867;DHT22;38739;53.324;6.862;2024-02-21T10:49:20;9.30;99.90
52867;DHT22;38739;53.324;6.862;2024-02-21T10:51:44;9.20;99.90
52867;DHT22;38739;53.324;6.862;2024-02-21T10:54:56;9.30;99.90
52867;DHT22;38739;53.324;6.862;2024-02-21T10:57:30;9.30;99.90
52867;DHT22;38739;53.324;6.862;2024-02-21T10:59:58;9.30;99.90
52867;DHT22;38739;53.324;6.862;2024-02-21T11:02:25;9.30;99.90
52867;DHT22;38739;53.324;6.862;2024-02-21T11:04:52;9.40;99.90
52867;DHT22;38739;53.324;6.862;2024-02-21T11:07:19;9.40;99.90
52867;DHT22;38739;53.324;6.862;2024-02-21T11:09:53;9.40;99.90
52867;DHT22;38739;53.324;6.862;2024-02-21T11:12:21;9.50;99.90
52867;DHT22;38739;53.324;6.862;2024-02-21T11:14:47;9.50;99.90
52867;DHT22;38739;53.324;6.862;2024-02-21T11:17:20;9.50;99.90
52867;DHT22;38739;53.324;6.862;2024-02-21T11:19:52;9.50;99.90
52867;DHT22;38739;53.324;6.862;2024-02-21T11:22:19;9.50;99.90
52867;DHT22;38739;53.324;6.862;2024-02-21T11:24:45;9.50;99.90
52867;DHT22;38739;53.324;6.862;2024-02-21T11:27:15;9.60;99.90
52867;DHT22;38739;53.324;6.862;2024-02-21T11:29:45;9.60;99.90
52867;DHT22;38739;53.324;6.862;2024-02-21T11:32:14;9.70;99.90
52867;DHT22;38739;53.324;6.862;2024-02-21T11:34:41;9.80;99.90
52867;DHT22;38739;53.324;6.862;2024-02-21T11:37:16;9.80;99.90
52867;DHT22;38739;53.324;6.862;2024-02-21T11:39:41;9.80;99.90
52867;DHT22;38739;53.324;6.862;2024-02-21T11:42:08;9.90;99.90
52867;DHT22;38739;53.324;6.862;2024-02-21T11:44:35;9.90;99.90
52867;DHT22;38739;53.324;6.862;2024-02-21T11:47:08;9.90;99.90
52867;DHT22;38739;53.324;6.862;2024-02-21T11:49:54;9.90;99.90
52867;DHT22;38739;53.324;6.862;2024-02-21T11:52:26;9.90;99.90
52867;DHT22;38739;53.324;6.862;2024-02-21T11:54:53;9.90;99.90
52867;DHT22;38739;53.324;6.862;2024-02-21T11:57:20;10.00;99.90
52867;DHT22;38739;53.324;6.862;2024-02-21T11:59:51;10.00;99.90
52867;DHT22;38739;53.324;6.862;2024-02-21T12:02:17;10.00;99.90
52867;DHT22;38739;53.324;6.862;2024-02-21T12:04:44;9.90;99.90
52867;DHT22;38739;53.324;6.862;2024-02-21T12:07:10;10.00;99.90
52867;DHT22;38739;53.324;6.862;2024-02-21T12:09:36;10.00;99.90
52867;DHT22;38739;53.324;6.862;2024-02-21T12:12:05;9.90;99.90
52867;DHT22;38739;53.324;6.862;2024-02-21T12:14:35;9.90;99.90
52867;DHT22;38739;53.324;6.862;2024-02-21T12:17:02;9.90;99.90
52867;DHT22;38739;53.324;6.862;2024-02-21T12:19:32;9.90;99.90
52867;DHT22;38739;53.324;6.862;2024-02-21T12:22:00;9.90;99.90
52867;DHT22;38739;53.324;6.862;2024-02-21T12:24:29;9.90;99.90
52867;DHT22;38739;53.324;6.862;2024-02-21T12:26:56;9.90;99.90
52867;DHT22;38739;53.324;6.862;2024-02-21T12:29:24;9.90;99.90
52867;DHT22;38739;53.324;6.862;2024-02-21T12:31:50;9.90;99.90
52867;DHT22;38739;53.324;6.862;2024-02-21T12:34:16;9.90;99.90
52867;DHT22;38739;53.324;6.862;2024-02-21T12:36:44;9.80;99.90
52867;DHT22;38739;53.324;6.862;2024-02-21T12:39:10;9.80;99.90
52867;DHT22;38739;53.324;6.862;2024-02-21T12:41:37;9.80;99.90
52867;DHT22;38739;53.324;6.862;2024-02-21T12:44:09;9.80;99.90
52867;DHT22;38739;53.324;6.862;2024-02-21T12:46:37;9.80;99.90
52867;DHT22;38739;53.324;6.862;2024-02-21T12:49:03;9.70;99.90
52867;DHT22;38739;53.324;6.862;2024-02-21T12:51:29;9.70;99.90
52867;DHT22;38739;53.324;6.862;2024-02-21T12:53:56;9.70;99.90
52867;DHT22;38739;53.324;6.862;2024-02-21T12:56:21;9.80;99.90
52867;DHT22;38739;53.324;6.862;2024-02-21T12:58:47;9.80;99.90
52867;DHT22;38739;53.324;6.862;2024-02-21T13:01:13;9.80;99.90
52867;DHT22;38739;53.324;6.862;2024-02-21T13:03:39;9.80;99.90
52867;DHT22;38739;53.324;6.862;2024-02-21T13:06:05;9.80;99.90
52867;DHT22;38739;53.324;6.862;2024-02-21T13:08:33;9.80;99.90
52867;DHT22;38739;53.324;6.862;2024-02-21T13:11:00;9.80;99.90
52867;DHT22;38739;53.324;6.862;2024-02-21T13:13:26;9.80;99.90
52867;DHT22;38739;53.324;6.862;2024-02-21T13:15:52;9.80;99.90
52867;DHT22;38739;53.324;6.862;2024-02-21T13:18:18;9.80;99.90
52867;DHT22;38739;53.324;6.862;2024-02-21T13:20:44;9.80;99.90
52867;DHT22;38739;53.324;6.862;2024-02-21T13:23:09;9.80;99.90
52867;DHT22;38739;53.324;6.862;2024-02-21T13:25:35;9.80;99.90
52867;DHT22;38739;53.324;6.862;2024-02-21T13:28:01;9.80;99.90
52867;DHT22;38739;53.324;6.862;2024-02-21T13:30:28;9.90;99.90
52867;DHT22;38739;53.324;6.862;2024-02-21T13:32:54;9.90;99.90
52867;DHT22;38739;53.324;6.862;2024-02-21T13:35:20;9.90;99.90
52867;DHT22;38739;53.324;6.862;2024-02-21T13:37:46;9.90;99.90
52867;DHT22;38739;53.324;6.862;2024-02-21T13:40:12;10.00;99.90
52867;DHT22;38739;53.324;6.862;2024-02-21T13:42:39;10.10;99.90
52867;DHT22;38739;53.324;6.862;2024-02-21T13:45:06;10.10;99.90
52867;DHT22;38739;53.324;6.862;2024-02-21T13:47:33;10.10;99.90
52867;DHT22;38739;53.324;6.862;2024-02-21T13:49:59;10.20;99.90
52867;DHT22;38739;53.324;6.862;2024-02-21T13:52:27;10.20;99.90
52867;DHT22;38739;53.324;6.862;2024-02-21T13:54:53;10.20;99.90
52867;DHT22;38739;53.324;6.862;2024-02-21T13:57:19;10.20;99.90
52867;DHT22;38739;53.324;6.862;2024-02-21T13:59:44;10.20;99.90
52867;DHT22;38739;53.324;6.862;2024-02-21T14:02:10;10.10;99.90
52867;DHT22;38739;53.324;6.862;2024-02-21T14:04:36;10.10;99.90
52867;DHT22;38739;53.324;6.862;2024-02-21T14:07:02;10.10;99.90
52867;DHT22;38739;53.324;6.862;2024-02-21T14:09:28;10.10;99.90
52867;DHT22;38739;53.324;6.862;2024-02-21T14:11:57;10.10;99.90
52867;DHT22;38739;53.324;6.862;2024-02-21T14:14:23;10.00;99.90
52867;DHT22;38739;53.324;6.862;2024-02-21T14:16:49;10.00;99.90
52867;DHT22;38739;53.324;6.862;2024-02-21T14:19:15;10.00;99.90
52867;DHT22;38739;53.324;6.862;2024-02-21T14:21:40;10.00;99.90
52867;DHT22;38739;53.324;6.862;2024-02-21T14:24:06;10.00;99.90
52867;DHT22;38739;53.324;6.862;2024-02-21T14:26:33;9.90;99.90
52867;DHT22;38739;53.324;6.862;2024-02-21T14:28:59;9.90;99.90
52867;DHT22;38739;53.324;6.862;2024-02-21T14:31:24;9.90;99.90
52867;DHT22;38739;53.324;6.862;2024-02-21T14:33:51;9.90;99.90
52867;DHT22;38739;53.324;6.862;2024-02-21T14:36:16;9.80;99.90
52867;DHT22;38739;53.324;6.862;2024-02-21T14:38:42;9.80;99.90
52867;DHT22;38739;53.324;6.862;2024-02-21T14:41:09;9.80;99.90
52867;DHT22;38739;53.324;6.862;2024-02-21T14:43:38;9.80;99.90
52867;DHT22;38739;53.324;6.862;2024-02-21T14:46:04;9.70;99.90
52867;DHT22;38739;53.324;6.862;2024-02-21T14:48:31;9.70;99.90
52867;DHT22;38739;53.324;6.862;2024-02-21T14:50:58;9.70;99.90
52867;DHT22;38739;53.324;6.862;2024-02-21T14:53:24;9.70;99.90
52867;DHT22;38739;53.324;6.862;2024-02-21T14:55:53;9.60;99.90
52867;DHT22;38739;53.324;6.862;2024-02-21T14:58:18;9.60;99.90
52867;DHT22;38739;53.324;6.862;2024-02-21T15:00:45;9.60;99.90
52867;DHT22;38739;53.324;6.862;2024-02-21T15:03:13;9.60;99.90
52867;DHT22;38739;53.324;6.862;2024-02-21T15:05:41;9.60;99.90
52867;DHT22;38739;53.324;6.862;2024-02-21T15:08:07;9.60;99.90
52867;DHT22;38739;53.324;6.862;2024-02-21T15:10:34;9.60;99.90
52867;DHT22;38739;53.324;6.862;2024-02-21T15:13:00;9.60;99.90
52867;DHT22;38739;53.324;6.862;2024-02-21T15:15:26;9.50;99.90
52867;DHT22;38739;53.324;6.862;2024-02-21T15:17:52;9.50;99.90
52867;DHT22;38739;53.324;6.862;2024-02-21T15:20:17;9.50;99.90
52867;DHT22;38739;53.324;6.862;2024-02-21T15:22:46;9.50;99.90
52867;DHT22;38739;53.324;6.862;2024-02-21T15:25:12;9.40;99.90
52867;DHT22;38739;53.324;6.862;2024-02-21T15:27:42;9.40;99.90
52867;DHT22;38739;53.324;6.862;2024-02-21T15:30:10;9.40;99.90
52867;DHT22;38739;53.324;6.862;2024-02-21T15:32:36;9.40;99.90
52867;DHT22;38739;53.324;6.862;2024-02-21T15:35:03;9.40;99.90
52867;DHT22;38739;53.324;6.862;2024-02-21T15:37:30;9.30;99.90
52867;DHT22;38739;53.324;6.862;2024-02-21T15:39:56;9.30;99.90
52867;DHT22;38739;53.324;6.862;2024-02-21T15:42:22;9.30;99.90
52867;DHT22;38739;53.324;6.862;2024-02-21T15:44:47;9.30;99.90